createdAt,value
2023-05-05T00:10:39.785Z,12.51
2023-05-05T01:52:50.952Z,11.96
2023-05-05T01:55:26.025Z,11.84
2023-05-05T01:58:03.007Z,11.73
2023-05-05T02:00:35.761Z,11.80
2023-05-05T02:03:11.413Z,11.82
2023-05-05T02:05:44.983Z,11.87
2023-05-05T02:08:18.781Z,11.98
2023-05-05T02:10:52.280Z,11.87
2023-05-05T02:13:26.657Z,11.85
2023-05-05T02:16:01.770Z,11.82
2023-05-05T02:18:36.104Z,11.85
2023-05-05T02:21:14.917Z,11.86
2023-05-05T02:23:52.094Z,11.89
2023-05-05T02:26:30.476Z,11.74
2023-05-05T02:29:03.577Z,11.69
2023-05-05T02:31:43.283Z,11.66
2023-05-05T02:34:22.846Z,11.69
2023-05-05T02:36:58.838Z,11.61
2023-05-05T02:39:44.920Z,11.62
2023-05-05T02:42:20.835Z,11.59
2023-05-05T02:44:57.351Z,11.50
2023-05-05T02:47:36.740Z,11.42
2023-05-05T02:50:10.198Z,11.34
2023-05-05T02:52:43.021Z,11.32
2023-05-05T02:55:15.857Z,11.36
2023-05-05T02:58:04.910Z,11.35
2023-05-05T03:00:49.080Z,11.36
2023-05-05T03:03:46.966Z,11.32
2023-05-05T03:06:22.156Z,11.26
2023-05-05T03:09:13.908Z,11.15
2023-05-05T03:12:04.869Z,11.23
2023-05-05T03:14:43.774Z,11.22
2023-05-05T03:17:18.708Z,11.21
2023-05-05T03:19:52.278Z,11.18
2023-05-05T03:22:27.939Z,11.17
2023-05-05T03:25:00.144Z,11.15
2023-05-05T03:27:32.762Z,11.10
2023-05-05T03:30:05.843Z,11.10
2023-05-05T03:32:41.165Z,11.11
2023-05-05T03:35:14.486Z,11.24
2023-05-05T03:37:46.692Z,11.17
2023-05-05T03:40:18.952Z,11.00
2023-05-05T03:42:51.260Z,11.10
2023-05-05T03:45:23.482Z,11.07
2023-05-05T03:47:55.860Z,11.03
2023-05-05T03:50:28.205Z,10.97
2023-05-05T03:53:00.431Z,11.02
2023-05-05T03:55:35.760Z,10.97
2023-05-05T03:58:10.739Z,10.93
2023-05-05T04:00:43.033Z,10.89
2023-05-05T04:03:15.497Z,10.92
2023-05-05T04:05:48.059Z,10.79
2023-05-05T04:08:20.349Z,10.74
2023-05-05T04:10:57.733Z,10.70
2023-05-05T04:13:40.389Z,10.79
2023-05-05T04:16:13.128Z,10.83
2023-05-05T04:18:45.500Z,10.82
2023-05-05T04:21:17.824Z,10.84
2023-05-05T04:23:53.088Z,10.87
2023-05-05T04:26:25.680Z,10.88
2023-05-05T04:28:58.075Z,10.77
2023-05-05T04:31:30.907Z,10.76
2023-05-05T04:34:03.256Z,10.91
2023-05-05T04:36:35.517Z,10.97
2023-05-05T04:39:08.986Z,11.01
2023-05-05T04:41:41.350Z,10.97
2023-05-05T04:44:13.600Z,11.02
2023-05-05T04:46:46.094Z,10.95
2023-05-05T04:49:18.383Z,11.01
2023-05-05T04:51:53.453Z,11.10
2023-05-05T04:54:25.845Z,11.28
2023-05-05T04:56:59.513Z,11.44
2023-05-05T04:59:31.835Z,11.48
2023-05-05T05:02:07.253Z,11.49
2023-05-05T05:04:39.690Z,11.50
2023-05-05T05:07:17.119Z,11.60
2023-05-05T05:09:49.421Z,11.60
2023-05-05T05:12:24.232Z,11.62
2023-05-05T05:14:56.433Z,11.63
2023-05-05T05:17:30.404Z,11.56
2023-05-05T05:20:05.196Z,11.59
2023-05-05T05:22:39.098Z,11.63
2023-05-05T05:25:11.575Z,11.58
2023-05-05T05:27:44.137Z,11.60
2023-05-05T05:30:17.264Z,11.59
2023-05-05T05:32:52.444Z,11.64
2023-05-05T05:35:24.627Z,11.57
2023-05-05T05:37:57.419Z,11.44
2023-05-05T05:40:39.126Z,11.38
2023-05-05T05:43:11.758Z,11.44
2023-05-05T05:45:44.303Z,11.57
2023-05-05T05:48:25.342Z,11.77
2023-05-05T05:50:57.540Z,12.05
2023-05-05T05:53:32.634Z,12.36
2023-05-05T05:56:05.278Z,12.64
2023-05-05T05:58:40.882Z,12.77
2023-05-05T06:01:13.249Z,12.65
2023-05-05T06:03:45.887Z,12.76
2023-05-05T06:06:18.331Z,12.95
2023-05-05T06:08:50.592Z,12.89
2023-05-05T06:11:23.140Z,12.95
2023-05-05T06:13:55.654Z,13.01
2023-05-05T06:16:28.066Z,12.93
2023-05-05T06:19:00.420Z,12.96
2023-05-05T06:21:32.612Z,12.99
2023-05-05T06:24:08.078Z,13.19
2023-05-05T06:26:43.143Z,13.09
2023-05-05T06:29:15.586Z,13.09
2023-05-05T06:31:47.864Z,13.19
2023-05-05T06:34:23.222Z,13.35
2023-05-05T06:36:55.706Z,13.46
2023-05-05T06:39:28.055Z,13.46
2023-05-05T06:42:04.408Z,13.56
2023-05-05T06:44:38.323Z,13.63
2023-05-05T06:47:43.231Z,13.61
2023-05-05T06:50:15.782Z,13.70
2023-05-05T06:52:48.096Z,13.84
2023-05-05T06:55:20.618Z,13.75
2023-05-05T06:57:53.111Z,13.91
2023-05-05T07:00:25.898Z,13.96
2023-05-05T07:02:58.460Z,13.92
2023-05-05T07:05:33.817Z,13.94
2023-05-05T07:08:09.637Z,13.91
2023-05-05T07:10:42.504Z,13.84
2023-05-05T07:13:17.784Z,13.78
2023-05-05T07:15:50.341Z,13.76
2023-05-05T07:18:22.592Z,13.75
2023-05-05T07:20:58.138Z,13.76
2023-05-05T07:23:30.546Z,13.74
2023-05-05T07:26:02.856Z,13.77
2023-05-05T07:28:35.797Z,13.70
2023-05-05T07:31:08.159Z,13.72
2023-05-05T07:33:44.418Z,13.71
2023-05-05T07:36:20.427Z,13.61
2023-05-05T07:38:52.626Z,13.51
2023-05-05T07:41:25.157Z,13.50
2023-05-05T07:44:01.460Z,13.31
2023-05-05T07:46:36.730Z,13.23
2023-05-05T07:49:09.125Z,13.16
2023-05-05T07:51:41.306Z,13.04
2023-05-05T07:54:13.508Z,12.94
2023-05-05T07:56:45.899Z,12.87
2023-05-05T07:59:18.249Z,12.89
2023-05-05T08:01:59.530Z,12.84
2023-05-05T08:04:31.692Z,12.82
2023-05-05T08:07:03.895Z,12.87
2023-05-05T08:09:37.542Z,12.76
2023-05-05T08:12:10.213Z,12.85
2023-05-05T08:14:42.737Z,13.02
2023-05-05T08:17:15.024Z,13.21
2023-05-05T08:19:47.165Z,13.40
2023-05-05T08:22:23.034Z,13.70
2023-05-05T08:25:02.428Z,14.19
2023-05-05T08:27:35.657Z,14.62
2023-05-05T08:30:09.365Z,14.79
2023-05-05T08:32:44.453Z,15.06
2023-05-05T08:35:16.870Z,15.81
2023-05-05T08:37:49.142Z,15.69
2023-05-05T08:40:30.118Z,15.62
2023-05-05T08:43:02.373Z,15.87
2023-05-05T08:45:34.549Z,16.02
2023-05-05T08:48:07.288Z,16.02
2023-05-05T08:50:40.915Z,15.85
2023-05-05T08:53:36.099Z,15.58
2023-05-05T08:56:08.967Z,15.50
2023-05-05T08:58:44.265Z,15.33
2023-05-05T09:01:18.204Z,15.25
2023-05-05T09:03:52.720Z,15.05
2023-05-05T09:06:27.556Z,14.88
2023-05-05T09:09:01.197Z,14.67
2023-05-05T09:11:36.033Z,14.61
2023-05-05T09:14:08.296Z,14.59
2023-05-05T09:16:44.446Z,14.56
2023-05-05T09:19:16.728Z,14.53
2023-05-05T09:21:49.795Z,14.45
2023-05-05T09:24:21.995Z,14.38
2023-05-05T09:26:57.388Z,14.29
2023-05-05T09:29:31.559Z,14.26
2023-05-05T09:32:10.795Z,14.27
2023-05-05T09:34:43.010Z,14.37
2023-05-05T09:37:31.263Z,14.51
2023-05-05T09:40:03.586Z,14.69
2023-05-05T09:42:40.082Z,14.90
2023-05-05T09:45:18.551Z,15.20
2023-05-05T09:47:52.017Z,15.50
2023-05-05T09:50:30.961Z,15.74
2023-05-05T09:53:09.415Z,15.89
2023-05-05T09:55:58.142Z,15.97
2023-05-05T09:58:31.702Z,16.13
2023-05-05T10:01:04.079Z,16.29
2023-05-05T10:03:52.426Z,16.54
2023-05-05T10:06:44.225Z,17.03
2023-05-05T10:09:16.621Z,17.88
2023-05-05T10:11:49.051Z,18.65
2023-05-05T10:14:22.361Z,18.86
2023-05-05T10:16:58.625Z,18.99
2023-05-05T10:19:36.332Z,18.99
2023-05-05T10:22:14.760Z,19.44
2023-05-05T10:25:16.256Z,19.56
2023-05-05T10:27:54.342Z,19.22
2023-05-05T10:30:45.131Z,18.99
2023-05-05T10:36:06.839Z,19.64
2023-05-05T10:38:42.807Z,19.72
2023-05-05T10:41:16.335Z,19.89
2023-05-05T10:43:52.796Z,19.82
2023-05-05T10:46:46.449Z,19.87
2023-05-05T10:49:50.489Z,19.91
2023-05-05T10:52:40.911Z,20.44
2023-05-05T10:55:32.230Z,21.81
2023-05-05T10:58:04.921Z,22.95
2023-05-05T11:00:54.887Z,23.86
2023-05-05T11:31:19.241Z,28.76
2023-05-05T11:42:27.390Z,28.65
2023-05-05T11:45:04.132Z,28.66
2023-05-05T12:00:12.037Z,28.25
2023-05-05T12:03:02.587Z,27.59
2023-05-05T12:09:21.680Z,25.57
2023-05-05T12:12:02.171Z,26.22
2023-05-05T12:20:04.891Z,27.67
2023-05-05T12:22:54.536Z,27.87
2023-05-05T12:25:35.848Z,28.01
2023-05-05T12:31:49.043Z,28.20
2023-05-05T12:34:51.291Z,28.48
2023-05-05T12:52:58.286Z,28.50
2023-05-05T13:04:59.350Z,26.92
2023-05-05T13:19:25.329Z,25.47
2023-05-05T13:23:01.091Z,25.62
2023-05-05T13:29:33.027Z,25.36
2023-05-05T13:32:06.577Z,25.46
2023-05-05T13:35:16.585Z,25.21
2023-05-05T13:38:22.154Z,24.92
2023-05-05T13:40:54.978Z,24.49
2023-05-05T13:43:27.100Z,24.10
2023-05-05T13:46:12.259Z,23.84
2023-05-05T13:49:01.777Z,23.80
2023-05-05T13:52:08.914Z,23.92
2023-05-05T13:54:42.396Z,24.18
2023-05-05T13:57:15.330Z,24.38
2023-05-05T13:59:47.442Z,24.32
2023-05-05T14:02:19.761Z,23.92
2023-05-05T14:04:51.895Z,23.30
2023-05-05T14:07:24.167Z,23.11
2023-05-05T14:09:56.606Z,22.91
2023-05-05T14:12:28.803Z,22.90
2023-05-05T14:15:01.222Z,22.84
2023-05-05T14:17:33.502Z,22.58
2023-05-05T14:20:07.331Z,22.03
2023-05-05T14:22:39.521Z,22.13
2023-05-05T14:25:14.812Z,22.07
2023-05-05T14:27:47.278Z,22.06
2023-05-05T14:30:19.435Z,22.19
2023-05-05T14:32:51.787Z,22.12
2023-05-05T14:35:24.000Z,22.07
2023-05-05T14:37:57.002Z,22.11
2023-05-05T14:40:30.478Z,22.03
2023-05-05T14:43:05.550Z,22.04
2023-05-05T14:45:40.518Z,21.89
2023-05-05T14:48:12.878Z,21.92
2023-05-05T14:50:48.789Z,21.89
2023-05-05T14:53:21.007Z,21.90
2023-05-05T14:55:53.210Z,21.60
2023-05-05T14:58:25.551Z,21.58
2023-05-05T15:00:57.961Z,21.62
2023-05-05T15:03:30.203Z,21.62
2023-05-05T15:06:02.532Z,21.76
2023-05-05T15:08:35.114Z,21.75
2023-05-05T15:11:07.664Z,21.77
2023-05-05T15:13:42.604Z,21.67
2023-05-05T15:16:14.918Z,21.66
2023-05-05T15:18:47.378Z,21.66
2023-05-05T15:21:19.711Z,21.71
2023-05-05T15:23:52.295Z,21.62
2023-05-05T15:26:27.698Z,21.55
2023-05-05T15:29:00.146Z,21.30
2023-05-05T15:31:32.558Z,21.25
2023-05-05T15:34:04.957Z,21.15
2023-05-05T15:36:37.239Z,21.04
2023-05-05T15:39:10.321Z,20.85
2023-05-05T15:41:42.721Z,20.77
2023-05-05T15:44:15.528Z,20.78
2023-05-05T15:46:50.241Z,20.70
2023-05-05T15:49:22.903Z,20.49
2023-05-05T15:51:55.268Z,20.34
2023-05-05T15:54:27.507Z,20.05
2023-05-05T15:57:00.161Z,19.80
2023-05-05T15:59:38.564Z,19.81
2023-05-05T16:02:10.954Z,19.70
2023-05-05T16:04:43.218Z,19.65
2023-05-05T16:07:15.811Z,19.67
2023-05-05T16:09:48.091Z,19.58
2023-05-05T16:12:23.625Z,19.48
2023-05-05T16:14:55.984Z,19.49
2023-05-05T16:17:28.433Z,19.51
2023-05-05T16:20:00.684Z,19.52
2023-05-05T16:22:32.935Z,19.48
2023-05-05T16:25:06.099Z,19.44
2023-05-05T16:27:38.619Z,19.42
2023-05-05T16:30:13.086Z,19.36
2023-05-05T16:32:45.448Z,19.27
2023-05-05T16:35:18.327Z,19.13
2023-05-05T16:37:50.711Z,18.80
2023-05-05T16:40:23.042Z,18.50
2023-05-05T16:42:55.363Z,18.23
2023-05-05T16:45:27.690Z,17.98
2023-05-05T16:48:00.036Z,17.61
2023-05-05T16:50:32.367Z,17.33
2023-05-05T16:53:04.775Z,17.10
2023-05-05T16:55:37.714Z,16.74
2023-05-05T16:58:12.654Z,16.50
2023-05-05T17:00:47.052Z,16.20
2023-05-05T17:03:23.094Z,15.91
2023-05-05T17:05:55.463Z,15.68
2023-05-05T17:08:27.864Z,15.59
2023-05-05T17:11:00.332Z,15.61
2023-05-05T17:13:35.839Z,15.56
2023-05-05T17:16:11.349Z,15.61
2023-05-05T17:18:43.729Z,15.58
2023-05-05T17:21:17.771Z,15.60
2023-05-05T17:23:50.589Z,15.60
2023-05-05T17:26:25.044Z,15.64
2023-05-05T17:28:57.580Z,15.65
2023-05-05T17:31:30.130Z,15.71
2023-05-05T17:34:04.880Z,15.73
2023-05-05T17:36:37.262Z,15.75
2023-05-05T17:39:11.891Z,15.77
2023-05-05T17:41:44.170Z,15.76
2023-05-05T17:44:16.399Z,15.71
2023-05-05T17:46:49.284Z,15.64
2023-05-05T17:49:21.846Z,15.62
2023-05-05T17:51:54.061Z,15.59
2023-05-05T17:54:26.370Z,15.60
2023-05-05T17:56:59.939Z,15.60
2023-05-05T17:59:32.766Z,15.55
2023-05-05T18:02:05.300Z,15.51
2023-05-05T18:04:38.439Z,15.53
2023-05-05T18:07:12.686Z,15.52
2023-05-05T18:09:45.106Z,15.42
2023-05-05T18:12:17.716Z,15.39
2023-05-05T18:14:50.047Z,15.37
2023-05-05T18:17:26.558Z,15.31
2023-05-05T18:20:01.220Z,15.30
2023-05-05T18:22:36.839Z,15.32
2023-05-05T18:25:10.723Z,15.34
2023-05-05T18:27:44.243Z,15.30
2023-05-05T18:30:22.402Z,15.23
2023-05-05T18:33:00.174Z,15.17
2023-05-05T18:35:41.735Z,15.07
2023-05-05T18:38:14.065Z,15.02
2023-05-05T18:40:46.443Z,15.05
2023-05-05T18:43:19.319Z,15.06
2023-05-05T18:45:51.793Z,15.07
2023-05-05T18:48:27.961Z,15.05
2023-05-05T18:51:06.259Z,15.06
2023-05-05T18:53:38.603Z,15.03
2023-05-05T18:56:11.556Z,15.05
2023-05-05T18:58:44.515Z,15.04
2023-05-05T19:01:16.849Z,15.03
2023-05-05T19:03:52.363Z,15.02
2023-05-05T19:06:32.472Z,14.98
2023-05-05T19:09:04.960Z,14.96
2023-05-05T19:11:42.005Z,14.98
2023-05-05T19:14:17.957Z,14.98
2023-05-05T19:16:54.366Z,14.98
2023-05-05T19:19:27.820Z,14.97
2023-05-05T19:22:02.958Z,14.97
2023-05-05T19:24:36.243Z,14.96
2023-05-05T19:27:16.419Z,14.93
2023-05-05T19:29:52.834Z,14.94
2023-05-05T19:32:34.828Z,14.95
2023-05-05T19:35:12.414Z,14.97
2023-05-05T19:37:45.088Z,14.97
2023-05-05T19:40:17.671Z,15.00
2023-05-05T19:42:50.513Z,15.03
2023-05-05T19:45:23.000Z,15.01
2023-05-05T19:47:55.297Z,15.01
2023-05-05T19:50:30.500Z,15.06
2023-05-05T19:53:04.966Z,15.04
2023-05-05T19:55:37.533Z,15.00
2023-05-05T19:58:10.035Z,14.95
2023-05-05T20:00:42.689Z,14.99
2023-05-05T20:03:15.320Z,14.89
2023-05-05T20:05:47.653Z,14.81
2023-05-05T20:08:20.018Z,14.72
2023-05-05T20:10:55.262Z,14.69
2023-05-05T20:13:27.610Z,14.54
2023-05-05T20:16:00.602Z,14.61
2023-05-05T20:18:33.507Z,14.59
2023-05-05T20:21:06.237Z,14.61
2023-05-05T20:23:38.655Z,14.62
2023-05-05T20:26:11.805Z,14.47
2023-05-05T20:28:45.926Z,14.50
2023-05-05T20:31:18.553Z,14.53
2023-05-05T20:33:53.846Z,14.50
2023-05-05T20:36:27.743Z,14.38
2023-05-05T20:39:00.339Z,14.35
2023-05-05T20:41:32.985Z,14.40
2023-05-05T20:44:05.429Z,14.32
2023-05-05T20:46:37.903Z,14.35
2023-05-05T20:49:10.291Z,14.34
2023-05-05T20:51:42.558Z,14.33
2023-05-05T20:54:15.088Z,14.34
2023-05-05T20:56:47.811Z,14.33
2023-05-05T20:59:20.145Z,14.29
2023-05-05T21:01:52.411Z,14.31
2023-05-05T21:04:25.368Z,14.35
2023-05-05T21:07:01.673Z,14.34
2023-05-05T21:09:35.591Z,14.28
2023-05-05T21:12:08.066Z,14.22
2023-05-05T21:14:46.657Z,14.19
2023-05-05T21:17:19.994Z,14.17
2023-05-05T21:19:52.840Z,14.22
2023-05-05T21:22:25.227Z,14.29
2023-05-05T21:25:13.813Z,14.35
2023-05-05T21:27:47.874Z,14.41
2023-05-05T21:30:23.226Z,14.46
2023-05-05T21:32:55.760Z,14.49
2023-05-05T21:35:28.111Z,14.51
2023-05-05T21:38:00.224Z,14.50
2023-05-05T21:40:32.422Z,14.42
2023-05-05T21:43:04.805Z,14.39
2023-05-05T21:45:37.045Z,14.36
2023-05-05T21:48:09.387Z,14.38
2023-05-05T21:50:46.855Z,14.45
2023-05-05T21:53:19.232Z,14.49
2023-05-05T21:55:51.849Z,14.54
2023-05-05T21:58:25.266Z,14.56
2023-05-05T22:00:57.447Z,14.54
2023-05-05T22:03:29.663Z,14.51
2023-05-05T22:06:02.010Z,14.49
2023-05-05T22:08:34.222Z,14.48
2023-05-05T22:11:07.112Z,14.50
2023-05-05T22:13:39.642Z,14.51
2023-05-05T22:16:12.430Z,14.51
2023-05-05T22:18:47.768Z,14.54
2023-05-05T22:21:21.396Z,14.57
2023-05-05T22:23:53.675Z,14.58
2023-05-05T22:26:26.073Z,14.58
2023-05-05T22:28:58.858Z,14.62
2023-05-05T22:31:31.120Z,14.59
2023-05-05T22:34:04.182Z,14.42
2023-05-05T22:36:36.313Z,14.48
2023-05-05T22:39:08.754Z,14.50
2023-05-05T22:41:41.390Z,14.55
2023-05-05T22:44:13.688Z,14.57
2023-05-05T22:46:45.986Z,14.58
2023-05-05T22:49:18.218Z,14.53
2023-05-05T22:51:51.497Z,14.54
2023-05-05T22:54:23.852Z,14.58
2023-05-05T22:56:56.355Z,14.61
2023-05-05T22:59:29.403Z,14.64
2023-05-05T23:02:07.338Z,14.61
2023-05-05T23:04:39.738Z,14.63
2023-05-05T23:07:13.371Z,14.65
2023-05-05T23:09:47.415Z,14.64
2023-05-05T23:12:19.631Z,14.65
2023-05-05T23:14:52.799Z,14.59
2023-05-05T23:17:25.015Z,14.59
2023-05-05T23:19:57.458Z,14.63
2023-05-05T23:22:29.676Z,14.50
2023-05-05T23:25:03.617Z,14.50
2023-05-05T23:27:36.081Z,14.53
2023-05-05T23:30:12.322Z,14.48
2023-05-05T23:32:45.233Z,14.39
2023-05-05T23:35:20.562Z,14.38
2023-05-05T23:37:53.361Z,14.45
2023-05-05T23:40:28.879Z,14.47
2023-05-05T23:43:06.791Z,14.45
2023-05-05T23:45:39.417Z,14.43
2023-05-05T23:48:15.625Z,14.40
2023-05-05T23:50:49.208Z,14.35
2023-05-05T23:53:24.398Z,14.36
2023-05-05T23:55:57.232Z,14.34
2023-05-05T23:58:29.564Z,14.32
